createdAt,value
2018-07-15T00:00:38.608Z,1013.26
2018-07-15T00:02:31.616Z,1013.29
2018-07-15T00:03:31.666Z,1013.24
2018-07-15T00:05:24.670Z,1013.30
2018-07-15T00:06:24.724Z,1013.27
2018-07-15T00:08:17.717Z,1013.28
2018-07-15T00:09:17.787Z,1013.28
2018-07-15T00:11:10.781Z,1013.29
2018-07-15T00:12:10.841Z,1013.26
2018-07-15T00:14:03.835Z,1013.26
2018-07-15T00:15:03.900Z,1013.23
2018-07-15T00:16:56.905Z,1013.20
2018-07-15T00:17:56.961Z,1013.22
2018-07-15T00:19:49.972Z,1013.19
2018-07-15T00:20:50.025Z,1013.20
2018-07-15T00:22:43.029Z,1013.22
2018-07-15T00:23:43.083Z,1013.21
2018-07-15T00:25:36.105Z,1013.20
2018-07-15T00:26:36.151Z,1013.22
2018-07-15T00:28:29.144Z,1013.19
2018-07-15T00:29:29.209Z,1013.23
2018-07-15T00:31:22.207Z,1013.17
2018-07-15T00:32:22.266Z,1013.18
2018-07-15T00:34:15.258Z,1013.14
2018-07-15T00:35:15.322Z,1013.17
2018-07-15T00:37:08.321Z,1013.15
2018-07-15T00:38:08.381Z,1013.17
2018-07-15T00:40:01.373Z,1013.16
2018-07-15T00:41:01.440Z,1013.17
2018-07-15T00:42:54.441Z,1013.14
2018-07-15T00:43:54.521Z,1013.17
2018-07-15T00:45:47.494Z,1013.17
2018-07-15T00:46:47.558Z,1013.17
2018-07-15T00:48:40.568Z,1013.17
2018-07-15T00:49:40.622Z,1013.17
2018-07-15T00:51:33.621Z,1013.18
2018-07-15T00:52:33.678Z,1013.17
2018-07-15T00:54:26.671Z,1013.18
2018-07-15T00:55:26.737Z,1013.21
2018-07-15T00:57:19.735Z,1013.19
2018-07-15T00:58:19.793Z,1013.18
2018-07-15T01:00:12.791Z,1013.19
2018-07-15T01:01:12.853Z,1013.19
2018-07-15T01:03:05.856Z,1013.20
2018-07-15T01:04:05.910Z,1013.17
2018-07-15T01:05:58.907Z,1013.07
2018-07-15T01:06:58.965Z,1013.08
2018-07-15T01:08:51.965Z,1013.11
2018-07-15T01:09:52.023Z,1013.10
2018-07-15T01:11:45.016Z,1013.09
2018-07-15T01:12:45.079Z,1013.09
2018-07-15T01:14:38.078Z,1013.12
2018-07-15T01:15:38.136Z,1013.09
2018-07-15T01:17:31.136Z,1013.08
2018-07-15T01:18:31.195Z,1013.08
2018-07-15T01:20:24.188Z,1013.11
2018-07-15T01:21:24.249Z,1013.14
2018-07-15T01:23:17.249Z,1013.09
2018-07-15T01:24:17.308Z,1013.11
2018-07-15T01:26:10.301Z,1013.06
2018-07-15T01:27:10.365Z,1013.10
2018-07-15T01:29:03.881Z,1013.10
2018-07-15T01:30:03.934Z,1013.10
2018-07-15T01:31:56.923Z,1013.12
2018-07-15T01:32:56.987Z,1013.12
2018-07-15T01:34:50.029Z,1013.13
2018-07-15T01:35:50.083Z,1013.08
2018-07-15T01:37:43.097Z,1013.07
2018-07-15T01:38:43.149Z,1013.05
2018-07-15T01:40:36.138Z,1013.02
2018-07-15T01:41:36.210Z,1013.01
2018-07-15T01:43:29.205Z,1013.04
2018-07-15T01:44:29.261Z,1013.03
2018-07-15T01:46:22.260Z,1013.03
2018-07-15T01:47:22.321Z,1013.04
2018-07-15T01:49:15.319Z,1012.99
2018-07-15T01:50:15.379Z,1013.00
2018-07-15T01:52:08.374Z,1013.02
2018-07-15T01:53:08.433Z,1013.00
2018-07-15T01:55:01.436Z,1013.01
2018-07-15T01:56:01.496Z,1013.03
2018-07-15T01:57:54.520Z,1012.98
2018-07-15T01:58:54.558Z,1012.98
2018-07-15T02:00:47.553Z,1012.99
2018-07-15T02:01:47.618Z,1012.94
2018-07-15T02:03:40.617Z,1012.97
2018-07-15T02:04:40.674Z,1013.00
2018-07-15T02:06:33.663Z,1012.97
2018-07-15T02:07:33.729Z,1012.99
2018-07-15T02:09:26.730Z,1012.97
2018-07-15T02:10:26.783Z,1013.01
2018-07-15T02:12:19.774Z,1012.96
2018-07-15T02:13:19.838Z,1012.93
2018-07-15T02:15:12.839Z,1012.95
2018-07-15T02:16:12.897Z,1012.98
2018-07-15T02:18:05.912Z,1012.94
2018-07-15T02:19:05.977Z,1012.93
2018-07-15T02:20:58.976Z,1012.95
2018-07-15T02:21:59.031Z,1012.94
2018-07-15T02:23:52.050Z,1012.91
2018-07-15T02:24:52.094Z,1012.93
2018-07-15T02:26:45.087Z,1012.91
2018-07-15T02:27:45.147Z,1012.88
2018-07-15T02:29:38.660Z,1012.87
2018-07-15T02:30:38.714Z,1012.91
2018-07-15T02:32:31.706Z,1012.88
2018-07-15T02:33:31.771Z,1012.84
2018-07-15T02:35:24.768Z,1012.89
2018-07-15T02:36:24.822Z,1012.92
2018-07-15T02:38:17.828Z,1012.87
2018-07-15T02:39:17.879Z,1012.88
2018-07-15T02:41:10.881Z,1012.89
2018-07-15T02:42:10.939Z,1012.89
2018-07-15T02:44:03.989Z,1012.86
2018-07-15T02:45:04.054Z,1012.83
2018-07-15T02:46:57.049Z,1012.83
2018-07-15T02:47:57.106Z,1012.83
2018-07-15T02:49:50.107Z,1012.83
2018-07-15T02:50:50.162Z,1012.81
2018-07-15T02:52:43.152Z,1012.80
2018-07-15T02:53:43.214Z,1012.82
2018-07-15T02:55:36.213Z,1012.79
2018-07-15T02:56:36.269Z,1012.81
2018-07-15T02:58:29.260Z,1012.80
2018-07-15T02:59:29.323Z,1012.78
2018-07-15T03:01:22.320Z,1012.80
2018-07-15T03:02:22.376Z,1012.78
2018-07-15T03:04:15.371Z,1012.73
2018-07-15T03:05:15.433Z,1012.73
2018-07-15T03:07:08.426Z,1012.75
2018-07-15T03:08:08.485Z,1012.75
2018-07-15T03:10:01.497Z,1012.70
2018-07-15T03:11:01.538Z,1012.71
2018-07-15T03:12:54.548Z,1012.68
2018-07-15T03:13:54.598Z,1012.70
2018-07-15T03:15:47.599Z,1012.68
2018-07-15T03:16:47.656Z,1012.65
2018-07-15T03:18:40.649Z,1012.65
2018-07-15T03:19:40.713Z,1012.62
2018-07-15T03:21:33.715Z,1012.64
2018-07-15T03:22:33.770Z,1012.61
2018-07-15T03:24:26.757Z,1012.59
2018-07-15T03:25:26.822Z,1012.58
2018-07-15T03:27:19.820Z,1012.58
2018-07-15T03:28:19.876Z,1012.57
2018-07-15T03:30:13.382Z,1012.54
2018-07-15T03:31:13.440Z,1012.53
2018-07-15T03:33:06.446Z,1012.48
2018-07-15T03:34:06.537Z,1012.47
2018-07-15T03:35:59.500Z,1012.51
2018-07-15T03:36:59.556Z,1012.48
2018-07-15T03:38:52.548Z,1012.50
2018-07-15T03:39:52.664Z,1012.46
2018-07-15T03:41:45.615Z,1012.48
2018-07-15T03:42:45.671Z,1012.48
2018-07-15T03:44:38.661Z,1012.51
2018-07-15T03:45:38.726Z,1012.55
2018-07-15T03:47:31.727Z,1012.56
2018-07-15T03:48:31.782Z,1012.56
2018-07-15T03:50:24.781Z,1012.57
2018-07-15T03:51:24.845Z,1012.57
2018-07-15T03:53:17.873Z,1012.54
2018-07-15T03:54:17.897Z,1012.57
2018-07-15T03:56:10.894Z,1012.59
2018-07-15T03:57:10.958Z,1012.57
2018-07-15T03:59:03.954Z,1012.57
2018-07-15T04:00:04.011Z,1012.54
2018-07-15T04:01:57.029Z,1012.53
2018-07-15T04:02:57.070Z,1012.56
2018-07-15T04:04:50.064Z,1012.51
2018-07-15T04:05:50.127Z,1012.51
2018-07-15T04:07:43.131Z,1012.51
2018-07-15T04:08:43.307Z,1012.52
2018-07-15T04:10:36.194Z,1012.50
2018-07-15T04:11:36.243Z,1012.48
2018-07-15T04:13:29.250Z,1012.48
2018-07-15T04:14:29.298Z,1012.49
2018-07-15T04:16:22.296Z,1012.52
2018-07-15T04:17:22.359Z,1012.52
2018-07-15T04:19:15.360Z,1012.56
2018-07-15T04:20:15.412Z,1012.50
2018-07-15T04:22:08.410Z,1012.59
2018-07-15T04:23:08.473Z,1012.53
2018-07-15T04:25:01.482Z,1012.52
2018-07-15T04:26:01.538Z,1012.52
2018-07-15T04:27:54.542Z,1012.56
2018-07-15T04:28:54.600Z,1012.56
2018-07-15T04:30:47.591Z,1012.55
2018-07-15T04:31:47.653Z,1012.53
2018-07-15T04:33:40.650Z,1012.54
2018-07-15T04:34:40.710Z,1012.55
2018-07-15T04:36:33.724Z,1012.54
2018-07-15T04:37:33.768Z,1012.54
2018-07-15T04:39:26.763Z,1012.55
2018-07-15T04:40:26.822Z,1012.54
2018-07-15T04:42:19.871Z,1012.56
2018-07-15T04:43:19.934Z,1012.53
2018-07-15T04:45:12.935Z,1012.51
2018-07-15T04:46:12.992Z,1012.51
2018-07-15T04:48:06.008Z,1012.53
2018-07-15T04:49:06.046Z,1012.50
2018-07-15T04:50:59.043Z,1012.50
2018-07-15T04:51:59.098Z,1012.50
2018-07-15T04:53:52.095Z,1012.50
2018-07-15T04:54:52.151Z,1012.48
2018-07-15T04:56:45.704Z,1012.52
2018-07-15T04:57:45.718Z,1012.50
2018-07-15T04:59:38.716Z,1012.55
2018-07-15T05:00:38.770Z,1012.53
2018-07-15T05:02:31.760Z,1012.50
2018-07-15T05:03:31.824Z,1012.50
2018-07-15T05:05:24.822Z,1012.49
2018-07-15T05:06:24.905Z,1012.52
2018-07-15T05:08:17.868Z,1012.52
2018-07-15T05:09:17.932Z,1012.53
2018-07-15T05:11:10.945Z,1012.51
2018-07-15T05:12:10.984Z,1012.53
2018-07-15T05:14:03.985Z,1012.54
2018-07-15T05:15:04.048Z,1012.57
2018-07-15T05:16:57.044Z,1012.58
2018-07-15T05:17:57.100Z,1012.61
2018-07-15T05:19:50.097Z,1012.64
2018-07-15T05:20:50.153Z,1012.58
2018-07-15T05:22:43.144Z,1012.59
2018-07-15T05:23:43.210Z,1012.62
2018-07-15T05:25:36.205Z,1012.62
2018-07-15T05:26:36.261Z,1012.64
2018-07-15T05:28:29.251Z,1012.67
2018-07-15T05:29:29.318Z,1012.69
2018-07-15T05:31:22.332Z,1012.71
2018-07-15T05:32:22.366Z,1012.71
2018-07-15T05:34:15.363Z,1012.70
2018-07-15T05:35:15.429Z,1012.70
2018-07-15T05:37:08.423Z,1012.71
2018-07-15T05:38:08.480Z,1012.68
2018-07-15T05:40:01.494Z,1012.67
2018-07-15T05:41:01.543Z,1012.72
2018-07-15T05:42:54.534Z,1012.70
2018-07-15T05:43:54.595Z,1012.72
2018-07-15T05:45:47.601Z,1012.74
2018-07-15T05:46:47.659Z,1012.73
2018-07-15T05:48:40.649Z,1012.71
2018-07-15T05:49:40.711Z,1012.71
2018-07-15T05:51:33.709Z,1012.72
2018-07-15T05:52:33.764Z,1012.76
2018-07-15T05:54:26.754Z,1012.76
2018-07-15T05:55:26.819Z,1012.80
2018-07-15T05:57:20.331Z,1012.82
2018-07-15T05:58:20.385Z,1012.84
2018-07-15T06:00:13.383Z,1012.85
2018-07-15T06:01:13.441Z,1012.85
2018-07-15T06:03:06.438Z,1012.86
2018-07-15T06:04:06.498Z,1012.84
2018-07-15T06:05:59.504Z,1012.84
2018-07-15T06:11:03.717Z,1012.82
2018-07-15T06:12:03.282Z,1012.83
2018-07-15T06:13:57.714Z,1012.81
2018-07-15T06:14:57.776Z,1012.85
2018-07-15T06:16:50.773Z,1012.86
2018-07-15T06:17:50.828Z,1012.88
2018-07-15T06:19:43.845Z,1012.90
2018-07-15T06:20:43.881Z,1012.98
2018-07-15T06:22:36.898Z,1013.02
2018-07-15T06:23:36.938Z,1013.02
2018-07-15T06:25:29.937Z,1013.14
2018-07-15T06:26:30.006Z,1013.20
2018-07-15T06:28:23.010Z,1013.23
2018-07-15T06:29:23.058Z,1013.23
2018-07-15T06:31:16.053Z,1013.27
2018-07-15T06:32:16.117Z,1013.24
2018-07-15T06:34:09.124Z,1013.32
2018-07-15T06:35:09.175Z,1013.25
2018-07-15T06:37:02.196Z,1013.24
2018-07-15T06:38:02.259Z,1013.28
2018-07-15T06:39:55.259Z,1013.36
2018-07-15T06:40:55.330Z,1013.36
2018-07-15T06:42:48.346Z,1013.49
2018-07-15T06:43:48.411Z,1013.58
2018-07-15T06:45:41.420Z,1013.62
2018-07-15T06:46:41.493Z,1013.63
2018-07-15T06:48:34.502Z,1013.59
2018-07-15T06:49:34.572Z,1013.52
2018-07-15T06:51:27.583Z,1013.48
2018-07-15T06:52:27.656Z,1013.48
2018-07-15T06:54:20.674Z,1013.51
2018-07-15T06:55:20.739Z,1013.54
2018-07-15T06:57:13.752Z,1013.49
2018-07-15T06:58:13.846Z,1013.49
2018-07-15T07:00:06.848Z,1013.49
2018-07-15T07:01:06.915Z,1013.45
2018-07-15T07:02:59.933Z,1013.44
2018-07-15T07:04:00.005Z,1013.47
2018-07-15T07:05:53.016Z,1013.51
2018-07-15T07:06:53.092Z,1013.53
2018-07-15T07:08:46.110Z,1013.51
2018-07-15T07:09:46.178Z,1013.57
2018-07-15T07:11:39.205Z,1013.54
2018-07-15T07:12:39.278Z,1013.51
2018-07-15T07:14:32.325Z,1013.45
2018-07-15T07:15:32.376Z,1013.41
2018-07-15T07:17:25.388Z,1013.35
2018-07-15T07:18:25.492Z,1013.34
2018-07-15T07:20:18.489Z,1013.41
2018-07-15T07:21:18.563Z,1013.39
2018-07-15T07:23:11.599Z,1013.33
2018-07-15T07:24:11.660Z,1013.31
2018-07-15T07:26:04.682Z,1013.30
2018-07-15T07:27:04.755Z,1013.27
2018-07-15T07:28:57.870Z,1013.28
2018-07-15T07:29:57.869Z,1013.29
2018-07-15T07:31:50.873Z,1013.31
2018-07-15T07:32:50.966Z,1013.29
2018-07-15T07:34:44.005Z,1013.30
2018-07-15T07:35:44.067Z,1013.30
2018-07-15T07:37:37.084Z,1013.27
2018-07-15T07:38:37.166Z,1013.27
2018-07-15T07:40:30.175Z,1013.28
2018-07-15T07:41:30.261Z,1013.22
2018-07-15T07:43:23.276Z,1013.23
2018-07-15T07:44:23.355Z,1013.29
2018-07-15T07:46:16.382Z,1013.24
2018-07-15T07:47:16.463Z,1013.26
2018-07-15T07:49:09.488Z,1013.27
2018-07-15T07:50:09.572Z,1013.24
2018-07-15T07:52:03.097Z,1013.29
2018-07-15T07:53:03.168Z,1013.28
2018-07-15T07:54:56.211Z,1013.29
2018-07-15T07:55:56.272Z,1013.24
2018-07-15T07:57:49.314Z,1013.29
2018-07-15T07:58:49.390Z,1013.26
2018-07-15T08:00:42.422Z,1013.25
2018-07-15T08:01:42.491Z,1013.26
2018-07-15T08:03:35.509Z,1013.26
2018-07-15T08:04:35.587Z,1013.25
2018-07-15T08:06:28.625Z,1013.28
2018-07-15T08:07:28.721Z,1013.33
2018-07-15T08:09:21.723Z,1013.25
2018-07-15T08:10:21.798Z,1013.29
2018-07-15T08:12:14.827Z,1013.24
2018-07-15T08:13:14.900Z,1013.24
2018-07-15T08:15:07.998Z,1013.29
2018-07-15T08:16:08.005Z,1013.26
2018-07-15T08:18:01.042Z,1013.25
2018-07-15T08:19:01.110Z,1013.23
2018-07-15T08:20:54.158Z,1013.22
2018-07-15T08:21:54.224Z,1013.26
2018-07-15T08:23:47.242Z,1013.28
2018-07-15T08:24:47.321Z,1013.24
2018-07-15T08:26:40.461Z,1013.23
2018-07-15T08:27:40.432Z,1013.27
2018-07-15T08:29:33.483Z,1013.27
2018-07-15T08:30:33.541Z,1013.26
2018-07-15T08:32:26.576Z,1013.28
2018-07-15T08:33:26.649Z,1013.31
2018-07-15T08:35:19.680Z,1013.26
2018-07-15T08:36:19.755Z,1013.27
2018-07-15T08:38:12.784Z,1013.28
2018-07-15T08:39:12.866Z,1013.29
2018-07-15T08:41:05.904Z,1013.24
2018-07-15T08:42:05.980Z,1013.27
2018-07-15T08:43:59.014Z,1013.31
2018-07-15T08:44:59.096Z,1013.25
2018-07-15T08:46:52.133Z,1013.25
2018-07-15T08:47:52.214Z,1013.23
2018-07-15T08:49:45.233Z,1013.24
2018-07-15T08:50:45.313Z,1013.27
2018-07-15T08:52:38.855Z,1013.29
2018-07-15T08:53:38.928Z,1013.30
2018-07-15T08:55:31.966Z,1013.34
2018-07-15T08:56:32.062Z,1013.34
2018-07-15T08:58:25.066Z,1013.31
2018-07-15T08:59:25.149Z,1013.35
2018-07-15T09:01:18.182Z,1013.30
2018-07-15T09:02:18.923Z,1013.30
2018-07-15T09:04:11.279Z,1013.27
2018-07-15T09:05:11.373Z,1013.28
2018-07-15T09:07:04.413Z,1013.33
2018-07-15T09:08:04.496Z,1013.31
2018-07-15T09:09:57.522Z,1013.29
2018-07-15T09:10:57.605Z,1013.31
2018-07-15T09:12:50.645Z,1013.35
2018-07-15T09:13:50.720Z,1013.36
2018-07-15T09:15:43.752Z,1013.30
2018-07-15T09:16:43.833Z,1013.33
2018-07-15T09:18:36.870Z,1013.28
2018-07-15T09:19:36.944Z,1013.25
2018-07-15T09:21:29.974Z,1013.20
2018-07-15T09:22:30.058Z,1013.22
2018-07-15T09:24:23.089Z,1013.19
2018-07-15T09:25:23.166Z,1013.18
2018-07-15T09:27:16.201Z,1013.15
2018-07-15T09:28:16.278Z,1013.13
2018-07-15T09:30:09.304Z,1013.12
2018-07-15T09:31:09.399Z,1013.07
2018-07-15T09:33:02.429Z,1013.12
2018-07-15T09:34:02.508Z,1013.07
2018-07-15T09:35:55.530Z,1013.01
2018-07-15T09:36:55.613Z,1012.88
2018-07-15T09:38:48.652Z,1012.71
2018-07-15T09:39:49.019Z,1012.67
2018-07-15T09:41:41.745Z,1012.71
2018-07-15T09:42:41.826Z,1012.65
2018-07-15T09:44:34.854Z,1012.68
2018-07-15T09:45:34.928Z,1012.69
2018-07-15T09:47:27.944Z,1012.70
2018-07-15T09:48:28.023Z,1012.74
2018-07-15T09:50:21.188Z,1012.65
2018-07-15T09:51:21.120Z,1012.62
2018-07-15T09:53:14.139Z,1012.62
2018-07-15T09:54:14.207Z,1012.59
2018-07-15T09:56:07.242Z,1012.59
2018-07-15T09:57:07.294Z,1012.57
2018-07-15T09:59:00.312Z,1012.57
2018-07-15T10:00:00.388Z,1012.54
2018-07-15T10:01:53.402Z,1012.55
2018-07-15T10:02:53.582Z,1012.58
2018-07-15T10:04:46.591Z,1012.60
2018-07-15T10:05:46.568Z,1012.57
2018-07-15T10:07:39.601Z,1012.56
2018-07-15T10:08:39.651Z,1012.53
2018-07-15T10:10:32.683Z,1012.51
2018-07-15T10:11:32.733Z,1012.53
2018-07-15T10:13:25.748Z,1012.50
2018-07-15T10:14:25.814Z,1012.50
2018-07-15T10:16:18.822Z,1012.56
2018-07-15T10:17:18.891Z,1012.51
2018-07-15T10:19:11.907Z,1012.48
2018-07-15T10:20:11.981Z,1012.51
2018-07-15T10:22:05.004Z,1012.54
2018-07-15T10:23:05.068Z,1012.51
2018-07-15T10:24:58.083Z,1012.44
2018-07-15T10:25:58.145Z,1012.44
2018-07-15T10:27:51.156Z,1012.39
2018-07-15T10:28:51.229Z,1012.35
2018-07-15T10:30:44.240Z,1012.39
2018-07-15T10:31:44.305Z,1012.39
2018-07-15T10:33:37.327Z,1012.36
2018-07-15T10:34:37.383Z,1012.36
2018-07-15T10:36:30.402Z,1012.34
2018-07-15T10:37:30.465Z,1012.29
2018-07-15T10:39:23.480Z,1012.34
2018-07-15T10:40:23.546Z,1012.33
2018-07-15T10:42:16.550Z,1012.34
2018-07-15T10:43:16.622Z,1012.31
2018-07-15T10:45:09.632Z,1012.30
2018-07-15T10:46:09.733Z,1012.24
2018-07-15T10:48:02.695Z,1012.30
2018-07-15T10:49:02.767Z,1012.30
2018-07-15T10:50:55.783Z,1012.31
2018-07-15T10:51:55.847Z,1012.27
2018-07-15T10:53:48.852Z,1012.31
2018-07-15T10:54:48.924Z,1012.25
2018-07-15T10:56:41.942Z,1012.25
2018-07-15T10:57:41.999Z,1012.24
2018-07-15T10:59:35.012Z,1012.26
2018-07-15T11:00:35.075Z,1012.25
2018-07-15T11:02:28.093Z,1012.20
2018-07-15T11:03:28.150Z,1012.18
2018-07-15T11:05:21.167Z,1012.15
2018-07-15T11:06:21.286Z,1012.12
2018-07-15T11:08:14.237Z,1012.12
2018-07-15T11:09:14.307Z,1012.08
2018-07-15T11:11:07.343Z,1012.05
2018-07-15T11:12:07.385Z,1012.03
2018-07-15T11:14:00.389Z,1011.99
2018-07-15T11:15:00.459Z,1011.98
2018-07-15T11:16:53.472Z,1012.00
2018-07-15T11:17:53.538Z,1012.01
2018-07-15T11:19:46.558Z,1011.99
2018-07-15T11:20:46.622Z,1011.99
2018-07-15T11:22:39.629Z,1011.92
2018-07-15T11:23:39.698Z,1011.95
2018-07-15T11:25:32.710Z,1012.04
2018-07-15T11:26:32.772Z,1011.94
2018-07-15T11:28:25.779Z,1011.98
2018-07-15T11:29:25.843Z,1011.92
2018-07-15T11:31:18.922Z,1011.85
2018-07-15T11:32:18.959Z,1011.86
2018-07-15T11:34:12.197Z,1011.88
2018-07-15T11:35:12.032Z,1011.87
2018-07-15T11:37:05.160Z,1011.92
2018-07-15T11:38:05.113Z,1011.89
2018-07-15T11:39:58.336Z,1011.85
2018-07-15T11:40:58.180Z,1011.88
2018-07-15T11:42:51.279Z,1011.87
2018-07-15T11:43:51.265Z,1011.88
2018-07-15T11:45:44.422Z,1011.82
2018-07-15T11:46:44.690Z,1011.81
2018-07-15T11:48:37.894Z,1011.79
2018-07-15T11:49:37.919Z,1011.72
2018-07-15T11:51:30.948Z,1011.76
2018-07-15T11:52:31.012Z,1011.76
2018-07-15T11:54:24.082Z,1011.78
2018-07-15T11:55:24.086Z,1011.70
2018-07-15T11:57:17.098Z,1011.74
2018-07-15T11:58:17.160Z,1011.69
2018-07-15T12:00:10.680Z,1011.67
2018-07-15T12:01:10.741Z,1011.66
2018-07-15T12:03:03.747Z,1011.66
2018-07-15T12:04:03.815Z,1011.66
2018-07-15T12:05:56.822Z,1011.59
2018-07-15T12:06:56.884Z,1011.60
2018-07-15T12:08:49.888Z,1011.60
2018-07-15T12:09:49.959Z,1011.54
2018-07-15T12:11:42.970Z,1011.54
2018-07-15T12:12:43.034Z,1011.52
2018-07-15T12:14:36.068Z,1011.50
2018-07-15T12:15:36.116Z,1011.48
2018-07-15T12:17:29.122Z,1011.45
2018-07-15T12:18:29.188Z,1011.46
2018-07-15T12:20:22.229Z,1011.53
2018-07-15T12:21:22.260Z,1011.41
2018-07-15T12:23:15.267Z,1011.42
2018-07-15T12:24:15.331Z,1011.45
2018-07-15T12:26:08.346Z,1011.45
2018-07-15T12:27:08.408Z,1011.40
2018-07-15T12:29:01.421Z,1011.46
2018-07-15T12:30:01.491Z,1011.43
2018-07-15T12:31:54.501Z,1011.38
2018-07-15T12:32:54.566Z,1011.39
2018-07-15T12:34:47.570Z,1011.33
2018-07-15T12:35:47.637Z,1011.36
2018-07-15T12:37:40.653Z,1011.30
2018-07-15T12:38:40.710Z,1011.27
2018-07-15T12:40:33.740Z,1011.29
2018-07-15T12:41:33.786Z,1011.30
2018-07-15T12:43:26.822Z,1011.23
2018-07-15T12:44:26.857Z,1011.26
2018-07-15T12:46:19.864Z,1011.24
2018-07-15T12:47:19.928Z,1011.20
2018-07-15T12:49:12.935Z,1011.19
2018-07-15T12:50:13.004Z,1011.18
2018-07-15T12:52:06.074Z,1011.13
2018-07-15T12:53:06.077Z,1011.11
2018-07-15T12:54:59.078Z,1011.11
2018-07-15T12:55:59.148Z,1011.07
2018-07-15T12:57:52.160Z,1011.11
2018-07-15T12:58:52.221Z,1011.06
2018-07-15T13:00:45.734Z,1011.05
2018-07-15T13:01:45.800Z,1010.98
2018-07-15T13:03:38.815Z,1011.01
2018-07-15T13:04:38.875Z,1010.99
2018-07-15T13:06:31.884Z,1010.94
2018-07-15T13:07:31.952Z,1010.97
2018-07-15T13:09:24.951Z,1010.92
2018-07-15T13:10:25.020Z,1010.91
2018-07-15T13:12:18.031Z,1010.94
2018-07-15T13:13:18.093Z,1010.89
2018-07-15T13:15:11.103Z,1010.89
2018-07-15T13:16:11.212Z,1010.87
2018-07-15T13:18:04.187Z,1010.87
2018-07-15T13:19:04.247Z,1010.81
2018-07-15T13:20:57.260Z,1010.81
2018-07-15T13:21:57.333Z,1010.77
2018-07-15T13:23:50.337Z,1010.73
2018-07-15T13:24:50.390Z,1010.71
2018-07-15T13:26:43.400Z,1010.65
2018-07-15T13:27:43.469Z,1010.64
2018-07-15T13:29:36.519Z,1010.66
2018-07-15T13:30:36.543Z,1010.69
2018-07-15T13:32:29.554Z,1010.62
2018-07-15T13:33:29.616Z,1010.63
2018-07-15T13:35:22.621Z,1010.63
2018-07-15T13:36:22.688Z,1010.60
2018-07-15T13:38:15.701Z,1010.59
2018-07-15T13:39:15.761Z,1010.60
2018-07-15T13:41:08.768Z,1010.58
2018-07-15T13:42:08.835Z,1010.55
2018-07-15T13:44:01.845Z,1010.60
2018-07-15T13:45:01.905Z,1010.64
2018-07-15T13:46:54.908Z,1010.60
2018-07-15T13:47:54.979Z,1010.61
2018-07-15T13:49:47.988Z,1010.55
2018-07-15T13:50:48.050Z,1010.54
2018-07-15T13:52:41.063Z,1010.52
2018-07-15T13:53:41.126Z,1010.53
2018-07-15T13:55:34.144Z,1010.53
2018-07-15T13:56:34.207Z,1010.53
2018-07-15T13:58:27.269Z,1010.51
2018-07-15T13:59:27.285Z,1010.52
2018-07-15T14:01:20.798Z,1010.52
2018-07-15T14:02:20.867Z,1010.51
2018-07-15T14:04:13.948Z,1010.47
2018-07-15T14:05:13.940Z,1010.47
2018-07-15T14:07:06.943Z,1010.42
2018-07-15T14:08:07.012Z,1010.43
2018-07-15T14:10:00.030Z,1010.38
2018-07-15T14:11:00.086Z,1010.38
2018-07-15T14:12:53.095Z,1010.41
2018-07-15T14:13:53.165Z,1010.38
2018-07-15T14:15:46.171Z,1010.42
2018-07-15T14:16:46.234Z,1010.39
2018-07-15T14:18:39.263Z,1010.33
2018-07-15T14:19:39.308Z,1010.29
2018-07-15T14:21:32.381Z,1010.32
2018-07-15T14:22:32.381Z,1010.30
2018-07-15T14:24:25.395Z,1010.33
2018-07-15T14:25:25.457Z,1010.33
2018-07-15T14:27:18.462Z,1010.28
2018-07-15T14:28:18.531Z,1010.27
2018-07-15T14:30:11.564Z,1010.27
2018-07-15T14:31:11.626Z,1010.26
2018-07-15T14:33:04.633Z,1010.24
2018-07-15T14:34:04.701Z,1010.26
2018-07-15T14:35:57.718Z,1010.24
2018-07-15T14:36:57.784Z,1010.22
2018-07-15T14:38:50.779Z,1010.21
2018-07-15T14:39:50.844Z,1010.19
2018-07-15T14:41:43.859Z,1010.16
2018-07-15T14:42:43.921Z,1010.15
2018-07-15T14:44:36.948Z,1010.10
2018-07-15T14:45:37.948Z,1010.12
2018-07-15T14:47:29.997Z,1010.12
2018-07-15T14:48:30.064Z,1010.11
2018-07-15T14:50:23.072Z,1010.11
2018-07-15T14:51:23.141Z,1010.08
2018-07-15T14:53:16.146Z,1010.10
2018-07-15T14:54:16.209Z,1010.09
2018-07-15T14:56:09.284Z,1010.14
2018-07-15T14:57:09.274Z,1010.09
2018-07-15T14:59:02.287Z,1010.07
2018-07-15T15:00:02.380Z,1010.06
2018-07-15T15:01:55.420Z,1010.06
2018-07-15T15:02:55.428Z,1010.06
2018-07-15T15:04:48.459Z,1010.06
2018-07-15T15:05:48.501Z,1010.07
2018-07-15T15:07:41.508Z,1010.04
2018-07-15T15:08:41.583Z,1010.01
2018-07-15T15:10:34.589Z,1009.98
2018-07-15T15:11:34.651Z,1010.03
2018-07-15T15:13:27.657Z,1010.01
2018-07-15T15:14:27.740Z,1010.01
2018-07-15T15:16:20.737Z,1010.06
2018-07-15T15:17:20.802Z,1010.03
2018-07-15T15:19:13.849Z,1010.03
2018-07-15T15:20:13.874Z,1010.02
2018-07-15T15:22:06.891Z,1010.04
2018-07-15T15:23:06.950Z,1009.99
2018-07-15T15:24:59.955Z,1009.99
2018-07-15T15:26:00.028Z,1009.98
2018-07-15T15:27:53.028Z,1010.01
2018-07-15T15:28:53.130Z,1009.96
2018-07-15T15:30:46.107Z,1009.96
2018-07-15T15:31:46.172Z,1010.00
2018-07-15T15:33:39.297Z,1010.00
2018-07-15T15:34:39.273Z,1009.96
2018-07-15T15:36:32.270Z,1009.94
2018-07-15T15:37:32.331Z,1009.96
2018-07-15T15:39:25.350Z,1009.99
2018-07-15T15:40:25.418Z,1009.98
2018-07-15T15:42:18.467Z,1009.99
2018-07-15T15:43:18.492Z,1009.89
2018-07-15T15:45:11.497Z,1009.90
2018-07-15T15:46:11.566Z,1009.88
2018-07-15T15:48:04.575Z,1009.84
2018-07-15T15:49:04.637Z,1009.87
2018-07-15T15:50:57.642Z,1009.85
2018-07-15T15:51:57.810Z,1009.85
2018-07-15T15:53:50.733Z,1009.81
2018-07-15T15:54:50.797Z,1009.78
2018-07-15T15:56:43.879Z,1009.79
2018-07-15T15:57:43.887Z,1009.76
2018-07-15T15:59:36.920Z,1009.74
2018-07-15T16:00:36.962Z,1009.70
2018-07-15T16:02:29.982Z,1009.70
2018-07-15T16:03:30.125Z,1009.71
2018-07-15T16:05:23.046Z,1009.70
2018-07-15T16:06:23.126Z,1009.69
2018-07-15T16:08:16.125Z,1009.71
2018-07-15T16:09:16.189Z,1009.74
2018-07-15T16:11:09.198Z,1009.70
2018-07-15T16:12:09.260Z,1009.73
2018-07-15T16:14:02.268Z,1009.69
2018-07-15T16:15:02.330Z,1009.71
2018-07-15T16:16:55.338Z,1009.73
2018-07-15T16:17:55.404Z,1009.68
2018-07-15T16:19:48.413Z,1009.66
2018-07-15T16:20:48.477Z,1009.72
2018-07-15T16:22:41.488Z,1009.66
2018-07-15T16:23:41.551Z,1009.62
2018-07-15T16:25:34.552Z,1009.62
2018-07-15T16:26:34.625Z,1009.59
2018-07-15T16:28:27.629Z,1009.66
2018-07-15T16:29:27.691Z,1009.63
2018-07-15T16:31:20.694Z,1009.62
2018-07-15T16:32:20.764Z,1009.61
2018-07-15T16:34:13.874Z,1009.60
2018-07-15T16:35:13.832Z,1009.58
2018-07-15T16:37:06.866Z,1009.56
2018-07-15T16:38:06.935Z,1009.57
2018-07-15T16:39:59.944Z,1009.56
2018-07-15T16:41:00.061Z,1009.57
2018-07-15T16:42:53.018Z,1009.51
2018-07-15T16:43:53.092Z,1009.50
2018-07-15T16:45:46.089Z,1009.54
2018-07-15T16:46:46.153Z,1009.57
2018-07-15T16:48:39.180Z,1009.57
2018-07-15T16:49:39.271Z,1009.58
2018-07-15T16:51:32.255Z,1009.55
2018-07-15T16:52:32.324Z,1009.52
2018-07-15T16:54:25.333Z,1009.53
2018-07-15T16:55:25.396Z,1009.49
2018-07-15T16:57:18.400Z,1009.53
2018-07-15T16:58:18.464Z,1009.52
2018-07-15T17:00:11.475Z,1009.51
2018-07-15T17:01:11.539Z,1009.53
2018-07-15T17:03:04.626Z,1009.50
2018-07-15T17:04:04.630Z,1009.49
2018-07-15T17:05:57.661Z,1009.52
2018-07-15T17:06:57.756Z,1009.51
2018-07-15T17:08:50.789Z,1009.49
2018-07-15T17:09:50.785Z,1009.51
2018-07-15T17:11:43.806Z,1009.51
2018-07-15T17:12:43.858Z,1009.47
2018-07-15T17:14:36.877Z,1009.48
2018-07-15T17:15:36.952Z,1009.52
2018-07-15T17:17:29.945Z,1009.52
2018-07-15T17:18:30.014Z,1009.51
2018-07-15T17:20:23.021Z,1009.49
2018-07-15T17:21:23.089Z,1009.50
2018-07-15T17:23:16.093Z,1009.51
2018-07-15T17:24:16.165Z,1009.47
2018-07-15T17:26:09.172Z,1009.46
2018-07-15T17:27:09.233Z,1009.43
2018-07-15T17:29:02.238Z,1009.46
2018-07-15T17:30:02.304Z,1009.45